Latest Weather Observations for Arlington Reef

IDQ60801

Issued at 1:35 pm EST Thursday 31 July 2014 (issued every 30 minutes, with the page automatically refreshed every 10 minutes)

About weather observations | Map of weather stations | Latest weather observations for QLD | Other Formats
Station Details ID: 200879 Name: ARLINGTON REEF Lat: -16.72 Lon: 146.11 Height: 0.0 m
Data from the previous 72 hours. | See also: Recent months at Arlington Reef
Date/Time
EST
Temp
°C
App
Temp
°C
Dew
Point
Rel
Hum
%
Delta-T
°C
Wind Press
QNH
hPa
Press
MSL
hPa
Rain
since 9 am
mm
Dir
 
Spd
km/h
Gust
km/h
Spd
kts
Gust
kts
31/01:30pm - - - - - S 22 28 12 15 1016.2 - -
31/01:00pm - - - - - S 22 26 12 14 1016.5 1016.5 -
31/12:30pm - - - - - S 22 26 12 14 1016.9 - -
31/12:00pm - - - - - S 24 28 13 15 1017.3 1017.3 -
31/11:30am - - - - - S 22 26 12 14 1017.6 - -
31/11:00am - - - - - S 22 28 12 15 1017.9 1017.9 -
31/10:30am - - - - - S 22 28 12 15 1018.1 - -
31/10:00am - - - - - SSE 17 19 9 10 1018.3 1018.3 -
31/09:30am - - - - - SE 17 20 9 11 1018.4 - -
31/09:00am - - - - - SE 19 20 10 11 1018.3 1018.3 -
31/08:30am - - - - - SE 19 22 10 12 1018.2 - -
31/08:00am - - - - - SE 20 24 11 13 1018.0 1018.0 -
31/07:30am - - - - - ESE 22 24 12 13 1017.8 - -
31/07:00am - - - - - SE 22 26 12 14 1017.5 1017.5 -
31/06:30am - - - - - ESE 22 24 12 13 1017.3 - -
31/06:00am - - - - - SE 22 26 12 14 1017.1 1017.1 -
31/05:30am - - - - - SE 24 28 13 15 1016.9 - -
31/05:00am - - - - - SE 22 26 12 14 1016.8 1016.8 -
31/04:30am - - - - - ESE 28 32 15 17 1016.8 - -
31/04:00am - - - - - ESE 20 24 11 13 1016.8 1016.8 -
31/03:30am - - - - - E 22 26 12 14 1016.9 - -
31/03:00am - - - - - ESE 26 32 14 17 1017.0 1017.0 -
31/02:30am - - - - - ESE 28 33 15 18 1017.1 - -
31/02:00am - - - - - ESE 26 32 14 17 1017.2 1017.2 -
31/01:30am - - - - - ESE 28 32 15 17 1017.5 - -
31/01:00am - - - - - ESE 30 37 16 20 1017.7 1017.7 -
31/12:30am - - - - - E 24 32 13 17 1017.9 - -
31/12:00am - - - - - SE 26 30 14 16 1018.0 1018.0 -
 
Date/Time
EST
Temp
°C
App
Temp
°C
Dew
Point
Rel
Hum
%
Delta-T
°C
Wind Press
QNH
hPa
Press
MSL
hPa
Rain
since 9 am
mm
Dir
 
Spd
km/h
Gust
km/h
Spd
kts
Gust
kts
30/11:30pm - - - - - SE 26 30 14 16 1018.1 - -
30/11:00pm - - - - - SE 26 32 14 17 1018.2 1018.2 -
30/10:30pm - - - - - SE 24 28 13 15 1018.3 - -
30/10:00pm - - - - - SE 26 32 14 17 1018.4 1018.4 -
30/09:30pm - - - - - SE 26 30 14 16 1018.5 - -
30/09:00pm - - - - - SE 24 28 13 15 1018.4 1018.4 -
30/08:30pm - - - - - ESE 26 32 14 17 1018.2 - -
30/08:00pm - - - - - SE 24 30 13 16 1018.0 1018.0 -
30/07:30pm - - - - - SE 24 30 13 16 1017.6 - -
30/07:00pm - - - - - SE 24 28 13 15 1017.3 1017.3 -
30/06:30pm - - - - - ESE 26 28 14 15 1017.0 - -
30/06:00pm - - - - - ESE 26 33 14 18 1017.0 1017.0 -
30/05:30pm - - - - - ESE 24 30 13 16 1016.8 - -
30/05:00pm - - - - - ESE 28 33 15 18 1016.8 1016.8 -
30/04:30pm - - - - - SE 26 32 14 17 1016.6 - -
30/04:00pm - - - - - SE 26 30 14 16 1016.6 1016.6 -
30/03:30pm - - - - - SE 24 30 13 16 1016.6 - -
30/03:00pm - - - - - ESE 26 30 14 16 1016.7 1016.7 -
30/02:30pm - - - - - SE 26 32 14 17 1016.9 - -
30/02:00pm - - - - - SE 22 26 12 14 1017.3 1017.3 -
30/01:30pm - - - - - SE 24 30 13 16 1017.5 - -
30/01:00pm - - - - - SE 26 30 14 16 1017.9 1017.9 -
30/12:30pm - - - - - SE 28 33 15 18 1018.1 - -
30/12:00pm - - - - - SSE 26 30 14 16 1018.6 1018.6 -
30/11:30am - - - - - SE 26 30 14 16 1019.0 - -
30/11:00am - - - - - SE 24 28 13 15 1019.4 1019.4 -
30/10:30am - - - - - SE 24 30 13 16 1019.6 - -
30/10:00am - - - - - ESE 30 35 16 19 1019.7 1019.7 -
30/09:30am - - - - - ESE 30 33 16 18 1019.6 - -
30/09:00am - - - - - ESE 30 35 16 19 1019.6 1019.6 -
30/08:30am - - - - - SE 26 32 14 17 1019.4 - -
30/08:00am - - - - - SE 30 33 16 18 1019.3 1019.3 -
30/07:30am - - - - - ESE 24 30 13 16 1019.1 - -
30/07:00am - - - - - S 28 35 15 19 1018.8 1018.8 -
30/06:30am - - - - - S 24 30 13 16 1018.4 - -
30/06:00am - - - - - S 28 33 15 18 1017.9 1017.9 -
30/05:30am - - - - - S 26 30 14 16 1017.9 - -
30/05:00am - - - - - S 22 26 12 14 1017.9 1017.9 -
30/04:30am - - - - - S 15 17 8 9 1017.9 - -
30/04:00am - - - - - SSE 19 22 10 12 1017.8 1017.8 -
30/03:30am - - - - - S 26 30 14 16 1017.7 - -
30/03:00am - - - - - S 26 30 14 16 1017.8 1017.8 -
30/02:30am - - - - - S 24 28 13 15 1018.0 - -
30/02:00am - - - - - S 19 22 10 12 1018.3 1018.3 -
30/01:30am - - - - - S 20 24 11 13 1018.7 - -
30/01:00am - - - - - SSE 22 26 12 14 1019.0 1019.0 -
30/12:30am - - - - - SE 22 28 12 15 1019.1 - -
30/12:00am - - - - - SSE 28 33 15 18 1019.2 1019.2 -
 
Date/Time
EST
Temp
°C
App
Temp
°C
Dew
Point
Rel
Hum
%
Delta-T
°C
Wind Press
QNH
hPa
Press
MSL
hPa
Rain
since 9 am
mm
Dir
 
Spd
km/h
Gust
km/h
Spd
kts
Gust
kts
29/11:30pm - - - - - SE 22 30 12 16 1019.3 - -
29/11:00pm - - - - - S 28 33 15 18 1019.5 1019.5 -
29/10:30pm - - - - - S 30 33 16 18 1019.5 - -
29/10:00pm - - - - - S 28 32 15 17 1019.5 1019.5 -
29/09:30pm - - - - - S 32 37 17 20 1019.3 - -
29/09:00pm - - - - - S 30 35 16 19 1019.2 1019.2 -
29/08:30pm - - - - - S 28 33 15 18 1019.1 - -
29/08:00pm - - - - - SSE 28 33 15 18 1019.0 1019.0 -
29/07:30pm - - - - - SSE 28 33 15 18 1018.8 - -
29/07:00pm - - - - - SSE 28 33 15 18 1018.5 1018.5 -
29/06:30pm - - - - - S 24 28 13 15 1018.3 - -
29/06:00pm - - - - - S 22 30 12 16 1018.3 1018.3 -
29/05:30pm - - - - - S 24 30 13 16 1018.0 - -
29/05:00pm - - - - - S 24 32 13 17 1017.8 1017.8 -
29/04:30pm - - - - - S 26 30 14 16 1017.6 - -
29/04:00pm - - - - - S 24 30 13 16 1017.6 1017.6 -
29/03:30pm - - - - - SSE 24 30 13 16 1017.6 - -
29/03:00pm - - - - - SSE 26 30 14 16 1017.8 1017.8 -
29/02:30pm - - - - - S 26 32 14 17 1018.0 - -
29/02:00pm - - - - - SSE 28 33 15 18 1018.5 1018.5 -
29/01:30pm - - - - - SSE 28 33 15 18 1018.9 - -
29/01:00pm - - - - - SSE 28 33 15 18 1019.2 1019.2 -
29/12:30pm - - - - - SSE 28 33 15 18 1019.5 - -
29/12:00pm - - - - - SSE 28 33 15 18 1019.9 1019.9 -
29/11:30am - - - - - SSE 30 35 16 19 1020.1 - -
29/11:00am - - - - - SSE 30 33 16 18 1020.4 1020.4 -
29/10:30am - - - - - SSE 32 37 17 20 1020.6 - -
29/10:00am - - - - - SSE 33 37 18 20 1020.8 1020.8 -
29/09:30am - - - - - SSE 33 39 18 21 1020.7 - -
29/09:00am - - - - - SSE 35 41 19 22 1020.5 1020.5 -
29/08:30am - - - - - SE 35 43 19 23 1020.1 - -
29/08:00am - - - - - SE 35 41 19 22 1019.9 1019.9 -
29/07:30am - - - - - SE 35 41 19 22 1019.5 - -
29/07:00am - - - - - SE 35 41 19 22 1019.2 1019.2 -
29/06:30am - - - - - SE 33 39 18 21 1018.9 - -
29/06:00am - - - - - SE 33 37 18 20 1018.5 1018.5 -
29/05:30am - - - - - SE 37 43 20 23 1018.2 - -
29/05:00am - - - - - SSE 32 37 17 20 1018.0 1018.0 -
29/04:30am - - - - - SE 28 33 15 18 1017.9 - -
29/04:00am - - - - - SE 28 35 15 19 1017.9 1017.9 -
29/03:30am - - - - - SE 24 30 13 16 1018.1 - -
29/03:00am - - - - - SE 24 32 13 17 1018.1 1018.1 -
29/02:30am - - - - - SE 24 28 13 15 1018.3 - -
29/02:00am - - - - - SE 24 28 13 15 1018.5 1018.5 -
29/01:30am - - - - - ESE 26 30 14 16 1018.9 - -
29/01:00am - - - - - SE 24 30 13 16 1019.2 1019.2 -
29/12:30am - - - - - SE 24 28 13 15 1019.3 - -
29/12:00am - - - - - SE 24 30 13 16 1019.3 1019.3 -
 
Date/Time
EST
Temp
°C
App
Temp
°C
Dew
Point
Rel
Hum
%
Delta-T
°C
Wind Press
QNH
hPa
Press
MSL
hPa
Rain
since 9 am
mm
Dir
 
Spd
km/h
Gust
km/h
Spd
kts
Gust
kts
28/11:30pm - - - - - SE 24 30 13 16 1019.4 - -
28/11:00pm - - - - - SE 26 30 14 16 1019.4 1019.4 -
28/10:30pm - - - - - ESE 28 35 15 19 1019.4 - -
28/10:00pm - - - - - SE 30 35 16 19 1019.4 1019.4 -
28/09:30pm - - - - - SE 30 35 16 19 1019.5 - -
28/09:00pm - - - - - SE 32 37 17 20 1019.3 1019.3 -
28/08:30pm - - - - - SE 28 35 15 19 1019.2 - -
28/08:00pm - - - - - SE 32 37 17 20 1019.1 1019.1 -
28/07:30pm - - - - - SE 30 37 16 20 1018.9 - -
28/07:00pm - - - - - SE 28 32 15 17 1018.6 1018.6 -
28/06:30pm - - - - - SE 30 33 16 18 1018.2 - -
28/06:00pm - - - - - SE 28 32 15 17 1018.0 1018.0 -
28/05:30pm - - - - - ESE 26 32 14 17 1017.7 - -
28/05:00pm - - - - - SE 24 30 13 16 1017.6 1017.6 -
28/04:30pm - - - - - ESE 26 30 14 16 1017.6 - -
28/04:00pm - - - - - SE 24 26 13 14 1017.7 1017.7 -
28/03:30pm - - - - - ESE 24 28 13 15 1017.6 - -
28/03:00pm - - - - - ESE 26 30 14 16 1017.7 1017.7 -
28/02:30pm - - - - - SSE 22 26 12 14 1017.9 - -
28/02:00pm - - - - - ESE 28 32 15 17 1018.1 1018.1 -

Other Formats:

Comma delimited format used in spreadsheet applications
http://www.bom.gov.au/fwo/IDQ60801/IDQ60801.94284.axf

JavaScript Object Notation format (JSON) in row-major order
http://www.bom.gov.au/fwo/IDQ60801/IDQ60801.94284.json